Time;durP1;ratioP1;P1;durP2;ratioP2;P2;SDS_P1;SDS_P2;PMS_P1;PMS_P2;Temp;Humidity;BMP_temperature;BMP_pressure;BME280_temperature;BME280_humidity;BME280_pressure;Samples;Min_cycle;Max_cycle;Signal;HPM_P1;HPM_P2
2022/07/21 00:01:02;;;;;;;;;;;24.40;46.80;;;;;;5023470;28;87258;-38
2022/07/21 00:03:28;;;;;;;;;;;24.40;46.70;;;;;;5022954;28;87317;-38
2022/07/21 00:05:53;;;;;;;;;;;24.40;46.80;;;;;;5023041;28;87241;-38
2022/07/21 00:08:19;;;;;;;;;;;24.30;46.70;;;;;;5024996;28;88010;-38
2022/07/21 00:10:44;;;;;;;;;;;24.30;46.80;;;;;;5022808;28;86954;-38
2022/07/21 00:13:10;;;;;;;;;;;24.30;46.70;;;;;;5022359;28;87178;-38
2022/07/21 00:15:35;;;;;;;;;;;24.30;46.80;;;;;;5022536;28;88104;-38
2022/07/21 00:18:01;;;;;;;;;;;24.30;46.80;;;;;;5022543;28;87254;-38
2022/07/21 00:20:30;;;;;;;;;;;24.30;46.80;;;;;;5022781;28;87266;-38
2022/07/21 00:22:56;;;;;;;;;;;24.20;46.80;;;;;;5022085;28;89594;-38
2022/07/21 00:25:22;;;;;;;;;;;24.20;46.80;;;;;;5023169;28;86676;-38
2022/07/21 00:27:47;;;;;;;;;;;24.20;46.80;;;;;;5022840;28;86904;-38
2022/07/21 00:30:13;;;;;;;;;;;24.20;46.80;;;;;;5025102;28;88225;-38
2022/07/21 00:32:39;;;;;;;;;;;24.10;46.80;;;;;;5021973;28;87962;-39
2022/07/21 00:35:05;;;;;;;;;;;24.20;46.80;;;;;;5022401;28;88018;-39
2022/07/21 00:37:31;;;;;;;;;;;24.20;46.90;;;;;;5022420;28;87137;-38
2022/07/21 00:39:57;;;;;;;;;;;24.10;46.80;;;;;;5022569;28;87218;-38
2022/07/21 00:42:26;;;;;;;;;;;24.10;46.90;;;;;;5022263;28;88050;-38
2022/07/21 00:44:52;;;;;;;;;;;24.10;47.00;;;;;;5022040;28;87238;-39
2022/07/21 00:47:21;;;;;;;;;;;24.10;46.90;;;;;;5020910;28;89181;-38
2022/07/21 00:49:48;;;;;;;;;;;24.00;46.80;;;;;;5025308;28;87282;-38
2022/07/21 00:52:13;;;;;;;;;;;24.00;46.80;;;;;;5022322;28;88173;-39
2022/07/21 00:54:39;;;;;;;;;;;24.00;46.90;;;;;;5022017;28;88302;-38
2022/07/21 00:57:05;;;;;;;;;;;24.00;46.90;;;;;;5021324;28;88089;-38
2022/07/21 00:59:31;;;;;;;;;;;24.00;46.90;;;;;;5022191;28;87458;-38
2022/07/21 01:01:56;;;;;;;;;;;23.90;46.90;;;;;;5021851;28;88592;-38
2022/07/21 01:04:22;;;;;;;;;;;23.90;46.90;;;;;;5022246;28;87464;-38
2022/07/21 01:06:47;;;;;;;;;;;23.90;47.00;;;;;;5021872;28;88942;-38
2022/07/21 01:09:13;;;;;;;;;;;23.90;47.00;;;;;;5021875;28;87200;-38
2022/07/21 01:11:40;;;;;;;;;;;23.90;47.00;;;;;;5025235;28;87249;-38
2022/07/21 01:14:05;;;;;;;;;;;23.90;47.00;;;;;;5021832;28;87848;-38
2022/07/21 01:16:31;;;;;;;;;;;23.90;47.00;;;;;;5022036;28;87145;-38
2022/07/21 01:18:57;;;;;;;;;;;23.80;47.00;;;;;;5022062;28;87406;-38
2022/07/21 01:21:30;;;;;;;;;;;23.80;47.00;;;;;;5021188;28;89148;-38
2022/07/21 01:23:56;;;;;;;;;;;23.80;47.10;;;;;;5021792;28;87867;-39
2022/07/21 01:26:22;;;;;;;;;;;23.70;47.00;;;;;;5023949;28;87258;-39
2022/07/21 01:28:47;;;;;;;;;;;23.70;47.00;;;;;;5024732;28;88037;-39
2022/07/21 01:31:13;;;;;;;;;;;23.70;47.00;;;;;;5025498;28;87149;-39
2022/07/21 01:33:38;;;;;;;;;;;23.70;47.10;;;;;;5028158;28;87890;-39
2022/07/21 01:36:04;;;;;;;;;;;23.70;47.10;;;;;;5025548;28;87258;-39
2022/07/21 01:41:29;;;;;;;;;;;23.60;47.10;;;;;;5025199;28;87299;-39
2022/07/21 01:43:55;;;;;;;;;;;23.60;47.50;;;;;;5025325;28;86874;-40
2022/07/21 01:46:20;;;;;;;;;;;23.60;47.10;;;;;;5024059;28;87954;-39
2022/07/21 01:48:46;;;;;;;;;;;23.60;47.20;;;;;;5024710;28;88064;-39
2022/07/21 01:51:12;;;;;;;;;;;23.60;47.20;;;;;;5025162;28;87154;-39
2022/07/21 01:53:38;;;;;;;;;;;23.50;47.10;;;;;;5025025;28;87490;-39
2022/07/21 01:56:04;;;;;;;;;;;23.50;47.20;;;;;;5027332;28;87998;-39
2022/07/21 01:58:30;;;;;;;;;;;23.50;47.20;;;;;;5024926;28;87390;-39
2022/07/21 02:00:55;;;;;;;;;;;23.50;47.20;;;;;;5024575;28;88023;-39
2022/07/21 02:03:21;;;;;;;;;;;23.50;47.20;;;;;;5025330;28;86443;-39
2022/07/21 02:05:46;;;;;;;;;;;23.40;47.20;;;;;;5023267;28;90042;-39
2022/07/21 02:08:12;;;;;;;;;;;23.40;47.20;;;;;;5024463;28;88167;-39
2022/07/21 02:10:38;;;;;;;;;;;23.40;47.20;;;;;;5024104;28;88499;-39
2022/07/21 02:13:03;;;;;;;;;;;23.40;47.30;;;;;;5024703;28;88266;-39
2022/07/21 02:15:29;;;;;;;;;;;23.40;47.30;;;;;;5024505;28;87586;-39
2022/07/21 02:17:55;;;;;;;;;;;23.40;47.20;;;;;;5026372;28;87503;-39
2022/07/21 02:20:21;;;;;;;;;;;23.30;47.20;;;;;;5024212;28;88081;-39
2022/07/21 02:22:47;;;;;;;;;;;23.30;47.30;;;;;;5024678;28;87229;-39
2022/07/21 02:25:13;;;;;;;;;;;23.30;47.30;;;;;;5024636;28;87478;-39
2022/07/21 02:27:39;;;;;;;;;;;23.20;47.30;;;;;;5024519;28;87262;-39
2022/07/21 02:30:05;;;;;;;;;;;23.30;47.30;;;;;;5024430;28;87109;-39
2022/07/21 02:32:30;;;;;;;;;;;23.20;47.20;;;;;;5024676;28;87420;-39
2022/07/21 02:34:56;;;;;;;;;;;23.20;47.30;;;;;;5023546;28;88843;-39
2022/07/21 02:37:22;;;;;;;;;;;23.20;47.30;;;;;;5023729;28;87115;-39
2022/07/21 02:39:48;;;;;;;;;;;23.20;47.40;;;;;;5026767;28;88603;-39
2022/07/21 02:42:14;;;;;;;;;;;23.10;47.40;;;;;;5024227;28;87572;-39
2022/07/21 02:44:39;;;;;;;;;;;23.10;47.30;;;;;;5024472;28;86861;-39
2022/07/21 02:47:05;;;;;;;;;;;23.10;47.40;;;;;;5023553;28;88099;-39
2022/07/21 02:49:30;;;;;;;;;;;23.10;47.40;;;;;;5024091;28;87096;-39
2022/07/21 02:51:56;;;;;;;;;;;23.10;47.40;;;;;;5024774;28;87469;-39
2022/07/21 02:54:21;;;;;;;;;;;23.00;47.40;;;;;;5023635;28;87274;-39
2022/07/21 02:56:47;;;;;;;;;;;23.10;47.50;;;;;;5024030;28;87063;-39
2022/07/21 02:59:12;;;;;;;;;;;23.00;47.30;;;;;;5025843;28;87955;-39
2022/07/21 03:01:38;;;;;;;;;;;23.00;47.40;;;;;;5024016;28;87119;-39
2022/07/21 03:04:03;;;;;;;;;;;23.00;47.40;;;;;;5023771;28;87319;-39
2022/07/21 03:06:29;;;;;;;;;;;23.00;47.40;;;;;;5023673;28;88010;-39
2022/07/21 03:08:54;;;;;;;;;;;23.00;47.50;;;;;;5024045;28;88020;-39
2022/07/21 03:11:20;;;;;;;;;;;22.90;47.40;;;;;;5023792;28;87592;-39
2022/07/21 03:13:45;;;;;;;;;;;22.90;47.50;;;;;;5023661;28;88107;-39
2022/07/21 03:16:11;;;;;;;;;;;22.90;47.50;;;;;;5023905;28;86301;-39
2022/07/21 03:18:36;;;;;;;;;;;22.90;47.50;;;;;;5024033;28;87116;-39
2022/07/21 03:21:02;;;;;;;;;;;22.90;47.50;;;;;;5026144;28;88186;-39
2022/07/21 03:23:28;;;;;;;;;;;22.80;47.50;;;;;;5023238;28;88033;-39
2022/07/21 03:25:53;;;;;;;;;;;22.80;47.50;;;;;;5023065;28;89252;-39
2022/07/21 03:28:19;;;;;;;;;;;22.80;47.50;;;;;;5023516;28;87031;-39
2022/07/21 03:30:45;;;;;;;;;;;22.80;47.60;;;;;;5023478;28;87425;-39
2022/07/21 03:33:10;;;;;;;;;;;22.80;47.60;;;;;;5023252;28;88366;-39
2022/07/21 03:35:36;;;;;;;;;;;22.80;47.60;;;;;;5023668;28;87101;-39
2022/07/21 03:38:02;;;;;;;;;;;22.70;47.60;;;;;;5023490;28;87505;-39
2022/07/21 03:40:29;;;;;;;;;;;22.70;47.60;;;;;;5023553;28;87218;-39
2022/07/21 03:42:58;;;;;;;;;;;22.70;47.60;;;;;;5026284;28;87085;-40
2022/07/21 03:45:24;;;;;;;;;;;22.70;47.60;;;;;;5022454;28;88190;-39
2022/07/21 03:47:50;;;;;;;;;;;22.70;47.60;;;;;;5021945;28;88043;-39
2022/07/21 03:50:18;;;;;;;;;;;22.70;47.70;;;;;;5022710;28;89692;-39
2022/07/21 03:52:44;;;;;;;;;;;22.60;47.70;;;;;;5022830;28;87996;-39
2022/07/21 03:55:14;;;;;;;;;;;22.60;47.70;;;;;;5022676;28;87123;-39
2022/07/21 03:57:41;;;;;;;;;;;22.60;47.70;;;;;;5022791;28;88837;-39
2022/07/21 04:00:08;;;;;;;;;;;22.60;47.70;;;;;;5022545;28;88160;-39
2022/07/21 04:02:34;;;;;;;;;;;22.60;47.80;;;;;;5023263;28;87213;-39
2022/07/21 04:05:00;;;;;;;;;;;22.60;47.80;;;;;;5025883;28;86979;-40
2022/07/21 04:07:25;;;;;;;;;;;22.60;47.80;;;;;;5023013;28;87123;-39
2022/07/21 04:09:51;;;;;;;;;;;22.60;47.90;;;;;;5022887;28;87480;-39
2022/07/21 04:12:16;;;;;;;;;;;22.50;47.80;;;;;;5021799;28;89617;-39
2022/07/21 04:14:42;;;;;;;;;;;22.50;47.90;;;;;;5022904;28;87119;-39
2022/07/21 04:17:07;;;;;;;;;;;22.50;47.90;;;;;;5023006;28;87506;-39
2022/07/21 04:19:33;;;;;;;;;;;22.50;47.90;;;;;;5020805;28;89687;-39
2022/07/21 04:21:58;;;;;;;;;;;22.50;48.00;;;;;;5022864;28;87072;-39
2022/07/21 04:24:24;;;;;;;;;;;22.40;48.00;;;;;;5022936;28;87472;-39
2022/07/21 04:26:49;;;;;;;;;;;22.50;48.00;;;;;;5025507;28;89409;-39
2022/07/21 04:29:15;;;;;;;;;;;22.40;48.00;;;;;;5023228;28;87455;-39
2022/07/21 04:31:40;;;;;;;;;;;22.40;48.00;;;;;;5022388;28;87335;-39
2022/07/21 04:34:06;;;;;;;;;;;22.40;48.00;;;;;;5022547;28;86977;-39
2022/07/21 04:36:31;;;;;;;;;;;22.40;48.00;;;;;;5022167;28;87986;-39
2022/07/21 04:38:56;;;;;;;;;;;22.40;48.10;;;;;;5022303;28;88278;-39
2022/07/21 04:41:22;;;;;;;;;;;22.40;48.10;;;;;;5022244;28;87200;-39
2022/07/21 04:43:48;;;;;;;;;;;22.40;48.20;;;;;;5020928;28;89213;-39
2022/07/21 04:46:14;;;;;;;;;;;22.30;48.10;;;;;;5021837;28;88093;-39
2022/07/21 04:48:40;;;;;;;;;;;22.40;48.20;;;;;;5024823;28;86985;-39
2022/07/21 04:51:06;;;;;;;;;;;22.30;48.20;;;;;;5022085;28;88067;-39
2022/07/21 04:53:31;;;;;;;;;;;22.30;48.20;;;;;;5022638;28;86454;-39
2022/07/21 04:55:57;;;;;;;;;;;22.30;48.20;;;;;;5022014;28;87736;-40
2022/07/21 04:58:22;;;;;;;;;;;22.30;48.30;;;;;;5021630;28;88156;-39
2022/07/21 05:00:48;;;;;;;;;;;22.30;48.40;;;;;;5024194;28;88171;-39
2022/07/21 05:03:13;;;;;;;;;;;22.30;48.30;;;;;;5025844;28;88340;-39
2022/07/21 05:05:40;;;;;;;;;;;22.30;48.40;;;;;;5025447;28;88252;-40
2022/07/21 05:08:05;;;;;;;;;;;22.20;48.40;;;;;;5028462;28;87166;-39
2022/07/21 05:10:31;;;;;;;;;;;22.30;48.30;;;;;;5024929;28;88184;-39
2022/07/21 05:12:56;;;;;;;;;;;22.30;48.40;;;;;;5025714;28;87148;-39
2022/07/21 05:15:22;;;;;;;;;;;22.20;48.40;;;;;;5025684;28;87632;-39
2022/07/21 05:17:47;;;;;;;;;;;22.20;48.40;;;;;;5025792;28;87321;-39
2022/07/21 05:20:13;;;;;;;;;;;22.20;48.40;;;;;;5025761;28;87002;-39
2022/07/21 05:22:39;;;;;;;;;;;22.20;48.50;;;;;;5025717;28;87520;-39
2022/07/21 05:25:05;;;;;;;;;;;22.20;48.50;;;;;;5024382;28;89129;-39
2022/07/21 05:27:31;;;;;;;;;;;22.20;48.50;;;;;;5025055;28;87143;-39
2022/07/21 05:29:56;;;;;;;;;;;22.20;48.60;;;;;;5028090;28;87264;-39
2022/07/21 05:32:22;;;;;;;;;;;22.20;48.70;;;;;;5025546;28;87091;-39
2022/07/21 05:34:47;;;;;;;;;;;22.20;48.80;;;;;;5025369;28;87482;-39
2022/07/21 05:37:13;;;;;;;;;;;22.20;48.80;;;;;;5024908;28;88077;-39
2022/07/21 05:39:38;;;;;;;;;;;22.20;48.80;;;;;;5025008;28;87164;-39
2022/07/21 05:42:04;;;;;;;;;;;22.20;48.80;;;;;;5026229;28;87502;-39
2022/07/21 05:44:29;;;;;;;;;;;22.20;48.90;;;;;;5024886;28;88102;-39
2022/07/21 05:46:55;;;;;;;;;;;22.20;48.90;;;;;;5025064;28;86981;-39
2022/07/21 05:49:20;;;;;;;;;;;22.20;49.00;;;;;;5024216;28;88696;-39
2022/07/21 05:51:46;;;;;;;;;;;22.20;49.00;;;;;;5027690;28;88349;-39
2022/07/21 05:54:12;;;;;;;;;;;22.20;49.10;;;;;;5025256;28;87366;-39
2022/07/21 05:56:37;;;;;;;;;;;22.20;49.00;;;;;;5024443;28;87655;-39
2022/07/21 05:59:03;;;;;;;;;;;22.20;49.00;;;;;;5024982;28;87102;-39
2022/07/21 06:01:28;;;;;;;;;;;22.20;49.10;;;;;;5025184;28;87505;-39
2022/07/21 06:03:54;;;;;;;;;;;22.20;49.20;;;;;;5024589;28;88179;-39
2022/07/21 06:06:19;;;;;;;;;;;22.20;49.20;;;;;;5025353;28;86324;-39
2022/07/21 06:08:46;;;;;;;;;;;22.20;49.20;;;;;;5024558;28;88099;-39
2022/07/21 06:11:12;;;;;;;;;;;22.20;49.20;;;;;;5023279;28;88219;-39
2022/07/21 06:13:38;;;;;;;;;;;22.20;49.40;;;;;;5027047;28;88059;-39
2022/07/21 06:16:04;;;;;;;;;;;22.20;49.40;;;;;;5024158;28;88366;-39
2022/07/21 06:18:30;;;;;;;;;;;22.20;49.40;;;;;;5024800;28;87034;-39
2022/07/21 06:20:55;;;;;;;;;;;22.20;49.40;;;;;;5024752;28;86913;-39
2022/07/21 06:23:21;;;;;;;;;;;22.20;49.40;;;;;;5024338;28;87835;-39
2022/07/21 06:25:47;;;;;;;;;;;22.20;49.40;;;;;;5024009;28;87143;-38
2022/07/21 06:28:12;;;;;;;;;;;22.20;49.40;;;;;;5024163;28;88774;-39
2022/07/21 06:30:38;;;;;;;;;;;22.20;49.40;;;;;;5024705;28;87246;-39
2022/07/21 06:33:04;;;;;;;;;;;22.20;49.50;;;;;;5024594;28;87148;-39
2022/07/21 06:35:29;;;;;;;;;;;22.20;49.60;;;;;;5027173;28;87468;-39
2022/07/21 06:37:54;;;;;;;;;;;22.20;49.50;;;;;;5023893;28;88067;-39
2022/07/21 06:40:20;;;;;;;;;;;22.20;49.60;;;;;;5024415;28;88516;-39
2022/07/21 06:42:46;;;;;;;;;;;22.20;49.70;;;;;;5023675;28;88026;-39
2022/07/21 06:45:11;;;;;;;;;;;22.20;49.60;;;;;;5023754;28;87087;-39
2022/07/21 06:47:37;;;;;;;;;;;22.20;49.60;;;;;;5024230;28;87489;-39
2022/07/21 06:50:03;;;;;;;;;;;22.20;49.70;;;;;;5024088;28;87377;-39
2022/07/21 06:52:29;;;;;;;;;;;22.20;49.80;;;;;;5024149;28;87074;-38
2022/07/21 06:54:54;;;;;;;;;;;22.20;49.70;;;;;;5027051;28;87470;-39
2022/07/21 06:57:20;;;;;;;;;;;22.20;49.70;;;;;;5023765;28;87230;-39
2022/07/21 06:59:46;;;;;;;;;;;22.20;49.70;;;;;;5023590;28;87839;-39
2022/07/21 07:02:11;;;;;;;;;;;22.20;49.80;;;;;;5022904;28;88242;-39
2022/07/21 07:04:36;;;;;;;;;;;22.20;49.80;;;;;;5023646;28;87118;-39
2022/07/21 07:07:02;;;;;;;;;;;22.20;49.70;;;;;;5023896;28;87580;-39
2022/07/21 07:09:28;;;;;;;;;;;22.20;49.80;;;;;;5023600;28;86979;-39
2022/07/21 07:12:02;;;;;;;;;;;22.20;49.80;;;;;;5023551;28;86912;-39
2022/07/21 07:14:28;;;;;;;;;;;22.20;49.70;;;;;;5023773;28;88875;-39
2022/07/21 07:16:53;;;;;;;;;;;22.20;49.70;;;;;;5026556;28;88096;-39
2022/07/21 07:19:19;;;;;;;;;;;22.20;49.80;;;;;;5024197;28;87480;-39
2022/07/21 07:21:44;;;;;;;;;;;22.20;49.80;;;;;;5023362;28;88255;-39
2022/07/21 07:24:10;;;;;;;;;;;22.20;49.80;;;;;;5023491;28;87132;-39
2022/07/21 07:26:36;;;;;;;;;;;22.20;49.90;;;;;;5023462;28;88967;-39
2022/07/21 07:29:01;;;;;;;;;;;22.30;50.00;;;;;;5021840;28;89419;-39
2022/07/21 07:31:27;;;;;;;;;;;22.20;49.90;;;;;;5023583;28;87079;-39
2022/07/21 07:33:52;;;;;;;;;;;22.20;49.90;;;;;;5023542;28;87286;-39
2022/07/21 07:36:18;;;;;;;;;;;22.20;49.90;;;;;;5023270;28;87811;-39
2022/07/21 07:38:43;;;;;;;;;;;22.20;50.00;;;;;;5026222;28;87140;-39
2022/07/21 07:41:09;;;;;;;;;;;22.30;50.00;;;;;;5022935;28;87333;-39
2022/07/21 07:43:34;;;;;;;;;;;22.30;49.90;;;;;;5023841;28;86299;-39
2022/07/21 07:46:01;;;;;;;;;;;22.30;50.00;;;;;;5023022;28;86988;-39
2022/07/21 07:48:27;;;;;;;;;;;22.30;50.00;;;;;;5022702;28;89724;-39
2022/07/21 07:50:52;;;;;;;;;;;22.30;49.90;;;;;;5022312;28;88462;-39
2022/07/21 07:53:18;;;;;;;;;;;22.30;49.90;;;;;;5023309;28;88536;-39
2022/07/21 07:55:43;;;;;;;;;;;22.30;50.00;;;;;;5022539;28;88163;-39
2022/07/21 07:58:09;;;;;;;;;;;22.30;50.10;;;;;;5023043;28;87409;-39
2022/07/21 08:00:35;;;;;;;;;;;22.30;50.00;;;;;;5025853;28;87471;-39
2022/07/21 08:03:01;;;;;;;;;;;22.30;50.00;;;;;;5022918;28;87137;-39
2022/07/21 08:05:26;;;;;;;;;;;22.30;50.00;;;;;;5023122;28;87423;-39
2022/07/21 08:07:52;;;;;;;;;;;22.30;50.00;;;;;;5022820;28;87868;-39
2022/07/21 08:10:17;;;;;;;;;;;22.30;50.60;;;;;;5022629;28;87212;-39
2022/07/21 08:12:43;;;;;;;;;;;22.30;50.00;;;;;;5022942;28;87181;-39
2022/07/21 08:15:09;;;;;;;;;;;22.30;50.00;;;;;;5022022;28;89063;-39
2022/07/21 08:17:34;;;;;;;;;;;22.30;50.00;;;;;;5023030;28;87028;-38
2022/07/21 08:20:00;;;;;;;;;;;22.30;49.90;;;;;;5022706;28;89033;-39
2022/07/21 08:22:26;;;;;;;;;;;22.40;49.90;;;;;;5025555;28;87944;-39
2022/07/21 08:24:51;;;;;;;;;;;22.40;49.90;;;;;;5022745;28;87511;-38
2022/07/21 08:27:17;;;;;;;;;;;22.40;49.90;;;;;;5022276;28;88060;-39
2022/07/21 08:29:43;;;;;;;;;;;22.40;49.80;;;;;;5022584;28;87158;-39
2022/07/21 08:32:08;;;;;;;;;;;22.40;49.80;;;;;;5023245;28;87272;-39
2022/07/21 08:34:34;;;;;;;;;;;22.40;49.80;;;;;;5021683;28;88003;-39
2022/07/21 08:36:59;;;;;;;;;;;22.40;49.80;;;;;;5022595;28;87087;-39
2022/07/21 08:39:25;;;;;;;;;;;22.40;49.80;;;;;;5021685;28;88627;-39
2022/07/21 08:41:51;;;;;;;;;;;22.40;49.80;;;;;;5021349;28;88285;-40
2022/07/21 08:44:16;;;;;;;;;;;22.60;52.40;;;;;;5025563;28;87066;-40
2022/07/21 08:46:42;;;;;;;;;;;22.70;51.60;;;;;;5021965;28;88254;-39
2022/07/21 08:49:09;;;;;;;;;;;22.90;53.20;;;;;;5022382;28;87103;-37
2022/07/21 08:51:35;;;;;;;;;;;23.00;53.40;;;;;;5022194;28;87945;-38
2022/07/21 08:54:01;;;;;;;;;;;23.10;51.60;;;;;;5022177;28;88046;-37
2022/07/21 08:56:28;;;;;;;;;;;23.10;54.40;;;;;;5022702;28;86396;-38
2022/07/21 08:58:54;;;;;;;;;;;23.20;55.80;;;;;;5022064;28;87092;-38
2022/07/21 09:01:23;;;;;;;;;;;23.30;56.60;;;;;;5022094;28;87956;-37
2022/07/21 09:03:52;;;;;;;;;;;23.40;55.70;;;;;;5024537;28;87996;-38
2022/07/21 09:06:18;;;;;;;;;;;23.50;56.90;;;;;;5021751;28;87211;-38
2022/07/21 09:08:45;;;;;;;;;;;23.60;57.30;;;;;;5022191;28;87189;-38
2022/07/21 09:11:14;;;;;;;;;;;23.70;57.20;;;;;;5022234;28;87291;-38
2022/07/21 09:13:40;;;;;;;;;;;23.70;57.90;;;;;;5021837;28;88105;-43
2022/07/21 09:16:06;;;;;;;;;;;23.90;56.40;;;;;;5022269;28;87071;-37
2022/07/21 09:18:32;;;;;;;;;;;23.90;55.70;;;;;;5022210;28;87493;-37
2022/07/21 09:20:58;;;;;;;;;;;23.80;54.80;;;;;;5022317;28;87322;-38
2022/07/21 09:23:24;;;;;;;;;;;23.80;56.60;;;;;;5021832;28;87130;-38
2022/07/21 09:25:50;;;;;;;;;;;23.80;56.40;;;;;;5023049;28;89875;-37
2022/07/21 09:28:17;;;;;;;;;;;23.70;57.50;;;;;;5021294;28;88061;-36
2022/07/21 09:30:47;;;;;;;;;;;23.80;57.00;;;;;;5021992;28;88761;-37
2022/07/21 09:33:23;;;;;;;;;;;23.90;56.60;;;;;;5021736;28;88176;-36
2022/07/21 09:35:57;;;;;;;;;;;24.00;56.00;;;;;;5021767;28;87385;-37
2022/07/21 09:38:24;;;;;;;;;;;24.10;57.80;;;;;;5021940;28;87462;-34
2022/07/21 09:40:50;;;;;;;;;;;24.20;54.60;;;;;;5021306;28;87703;-37
2022/07/21 09:43:32;;;;;;;;;;;24.10;52.40;;;;;;5021495;28;87167;-35
2022/07/21 09:46:05;;;;;;;;;;;24.00;51.00;;;;;;5021718;28;88967;-36
2022/07/21 09:48:31;;;;;;;;;;;24.00;49.30;;;;;;5027481;28;88116;-37
2022/07/21 09:50:57;;;;;;;;;;;24.10;49.20;;;;;;5025280;28;87877;-35
2022/07/21 09:53:22;;;;;;;;;;;24.20;51.00;;;;;;5023898;28;89224;-36
2022/07/21 09:55:48;;;;;;;;;;;24.10;51.40;;;;;;5025155;28;87055;-36
2022/07/21 09:58:14;;;;;;;;;;;24.10;51.80;;;;;;5024870;28;87436;-37
2022/07/21 10:00:39;;;;;;;;;;;24.00;51.60;;;;;;5024813;28;88187;-37
2022/07/21 10:03:05;;;;;;;;;;;24.00;50.90;;;;;;5024799;28;87467;-37
2022/07/21 10:05:30;;;;;;;;;;;24.00;50.80;;;;;;5025319;28;88331;-37
2022/07/21 10:07:57;;;;;;;;;;;24.10;51.00;;;;;;5024480;28;88040;-37
2022/07/21 10:10:22;;;;;;;;;;;24.10;50.90;;;;;;5028085;28;86348;-37
2022/07/21 10:12:49;;;;;;;;;;;24.10;50.90;;;;;;5024509;28;88018;-37
2022/07/21 10:15:15;;;;;;;;;;;24.10;51.00;;;;;;5024641;28;87134;-37
2022/07/21 10:17:41;;;;;;;;;;;24.00;51.10;;;;;;5024214;28;87855;-37
2022/07/21 10:20:39;;;;;;;;;;;24.00;51.10;;;;;;5024407;28;88216;-36
2022/07/21 10:23:10;;;;;;;;;;;24.00;51.10;;;;;;5001087;28;87423;-37
2022/07/21 10:25:36;;;;;;;;;;;24.00;51.10;;;;;;5024722;28;87259;-37
2022/07/21 10:28:08;;;;;;;;;;;24.00;51.10;;;;;;5024244;28;88127;-37
2022/07/21 10:30:40;;;;;;;;;;;24.00;51.10;;;;;;5024219;28;87130;-37
2022/07/21 10:33:06;;;;;;;;;;;24.00;51.00;;;;;;5027107;28;87258;-37
2022/07/21 10:35:32;;;;;;;;;;;24.00;51.10;;;;;;5024932;28;86383;-37
2022/07/21 10:38:01;;;;;;;;;;;24.00;51.10;;;;;;5024461;28;86963;-37
2022/07/21 10:40:27;;;;;;;;;;;24.00;51.10;;;;;;5023798;28;88093;-37
2022/07/21 10:42:59;;;;;;;;;;;24.00;51.00;;;;;;5023794;28;88062;-36
2022/07/21 10:45:40;;;;;;;;;;;24.00;50.90;;;;;;5024108;28;88350;-37
2022/07/21 10:48:07;;;;;;;;;;;24.10;51.00;;;;;;5024077;28;87946;-37
2022/07/21 10:50:37;;;;;;;;;;;24.10;50.90;;;;;;5024183;28;86990;-37
2022/07/21 10:53:04;;;;;;;;;;;24.10;50.90;;;;;;5023977;28;89038;-37
2022/07/21 10:55:35;;;;;;;;;;;24.10;50.90;;;;;;5026342;28;89833;-37
2022/07/21 10:58:13;;;;;;;;;;;24.20;50.90;;;;;;5023619;28;88884;-37
2022/07/21 11:00:50;;;;;;;;;;;24.10;50.80;;;;;;5024100;28;87763;-37
2022/07/21 11:03:22;;;;;;;;;;;24.10;50.80;;;;;;5024026;28;87229;-37
2022/07/21 11:06:22;;;;;;;;;;;24.10;50.90;;;;;;5023863;28;88783;-36
2022/07/21 11:08:50;;;;;;;;;;;24.10;50.90;;;;;;4999683;28;88909;-37
2022/07/21 11:11:15;;;;;;;;;;;24.20;50.90;;;;;;5024025;28;87128;-37
2022/07/21 11:14:00;;;;;;;;;;;24.10;50.90;;;;;;5023578;28;88894;-37
2022/07/21 11:16:46;;;;;;;;;;;24.20;50.90;;;;;;5026036;28;89546;-37
2022/07/21 11:19:31;;;;;;;;;;;24.10;50.90;;;;;;5023638;28;87286;-37
2022/07/21 11:21:58;;;;;;;;;;;24.20;50.90;;;;;;5023465;28;88496;-37
2022/07/21 11:24:24;;;;;;;;;;;24.20;50.80;;;;;;5023665;28;87098;-37
2022/07/21 11:26:57;;;;;;;;;;;24.20;50.80;;;;;;5024174;28;87561;-37
2022/07/21 11:29:23;;;;;;;;;;;24.20;50.90;;;;;;5023033;28;88117;-36
2022/07/21 11:31:49;;;;;;;;;;;24.20;50.70;;;;;;5023543;28;86983;-37
2022/07/21 11:34:15;;;;;;;;;;;24.20;50.70;;;;;;5023031;28;87883;-37
2022/07/21 11:36:41;;;;;;;;;;;24.30;50.80;;;;;;5023186;28;87949;-37
2022/07/21 11:39:11;;;;;;;;;;;24.30;50.70;;;;;;5026465;28;87663;-37
2022/07/21 11:41:38;;;;;;;;;;;24.30;50.70;;;;;;5022825;28;88670;-37
2022/07/21 11:44:04;;;;;;;;;;;24.30;50.70;;;;;;5023217;28;87175;-37
2022/07/21 11:46:45;;;;;;;;;;;24.30;50.50;;;;;;5022633;28;88887;-37
2022/07/21 11:49:10;;;;;;;;;;;24.30;50.50;;;;;;5022906;28;88094;-37
2022/07/21 11:51:36;;;;;;;;;;;24.30;50.40;;;;;;5023457;28;86169;-37
2022/07/21 11:54:02;;;;;;;;;;;24.30;50.50;;;;;;5022723;28;88126;-37
2022/07/21 11:56:27;;;;;;;;;;;24.40;50.50;;;;;;5022967;28;88175;-37
2022/07/21 11:59:07;;;;;;;;;;;24.40;50.50;;;;;;5020852;28;88196;-37
2022/07/21 12:01:33;;;;;;;;;;;24.40;50.50;;;;;;5025669;28;88581;-37
2022/07/21 12:03:58;;;;;;;;;;;24.50;50.50;;;;;;5023236;28;87305;-37
2022/07/21 12:06:24;;;;;;;;;;;24.50;50.40;;;;;;5023001;28;87499;-37
2022/07/21 12:08:49;;;;;;;;;;;24.50;50.50;;;;;;5022039;28;88096;-37
2022/07/21 12:11:15;;;;;;;;;;;24.50;50.40;;;;;;5022756;28;87084;-37
2022/07/21 12:14:08;;;;;;;;;;;24.50;50.40;;;;;;5022999;28;87341;-37
2022/07/21 12:16:48;;;;;;;;;;;24.50;50.30;;;;;;5022954;28;87352;-37
2022/07/21 12:19:15;;;;;;;;;;;24.50;50.90;;;;;;5022639;28;87215;-37
2022/07/21 12:21:44;;;;;;;;;;;24.50;50.40;;;;;;5022843;28;87620;-37
2022/07/21 12:24:10;;;;;;;;;;;24.60;50.40;;;;;;5024567;28;90276;-37
2022/07/21 12:26:36;;;;;;;;;;;24.60;50.30;;;;;;5022947;28;88573;-37
2022/07/21 12:29:01;;;;;;;;;;;24.60;50.30;;;;;;5022169;28;87820;-37
2022/07/21 12:31:27;;;;;;;;;;;24.70;50.10;;;;;;5022728;28;87078;-37
2022/07/21 12:33:55;;;;;;;;;;;24.60;50.20;;;;;;5022590;28;87443;-37
2022/07/21 12:36:21;;;;;;;;;;;24.70;50.20;;;;;;5022179;28;89638;-37
2022/07/21 12:38:47;;;;;;;;;;;24.70;50.30;;;;;;5022763;28;87122;-37
2022/07/21 12:41:13;;;;;;;;;;;24.70;50.10;;;;;;5022916;28;88377;-37
2022/07/21 12:43:39;;;;;;;;;;;24.70;50.10;;;;;;5021996;28;89276;-37
2022/07/21 12:46:15;;;;;;;;;;;24.80;50.20;;;;;;5025102;28;87145;-37
2022/07/21 12:48:41;;;;;;;;;;;24.80;50.20;;;;;;5021180;28;90225;-37
2022/07/21 12:51:07;;;;;;;;;;;24.90;50.20;;;;;;5022385;28;87117;-37
2022/07/21 12:53:35;;;;;;;;;;;24.90;50.20;;;;;;5022597;28;87562;-37
2022/07/21 12:56:00;;;;;;;;;;;24.90;50.10;;;;;;5021901;28;88182;-37
2022/07/21 12:58:26;;;;;;;;;;;24.90;49.90;;;;;;5022485;28;87041;-37
2022/07/21 13:00:52;;;;;;;;;;;25.00;50.00;;;;;;5022295;28;87282;-37
2022/07/21 13:03:17;;;;;;;;;;;25.00;49.90;;;;;;5021933;28;88065;-37
2022/07/21 13:05:43;;;;;;;;;;;25.00;49.70;;;;;;5022675;28;86348;-37
2022/07/21 13:08:08;;;;;;;;;;;25.00;49.80;;;;;;5024703;28;86973;-37
2022/07/21 13:10:34;;;;;;;;;;;25.10;49.80;;;;;;5021963;28;87114;-37
2022/07/21 13:13:02;;;;;;;;;;;25.10;49.80;;;;;;5021626;28;88008;-37
2022/07/21 13:15:28;;;;;;;;;;;25.10;49.70;;;;;;5021601;28;88063;-37
2022/07/21 13:17:53;;;;;;;;;;;25.10;49.90;;;;;;5022138;28;87095;-37
2022/07/21 13:20:19;;;;;;;;;;;25.10;49.80;;;;;;5022405;28;87333;-37
2022/07/21 13:22:45;;;;;;;;;;;25.20;49.80;;;;;;5025307;28;87164;-37
2022/07/21 13:25:11;;;;;;;;;;;25.20;49.80;;;;;;5025551;28;87169;-37
2022/07/21 13:27:36;;;;;;;;;;;25.20;49.80;;;;;;5028239;28;87192;-37
2022/07/21 13:30:03;;;;;;;;;;;25.20;49.70;;;;;;5025866;28;86271;-37
2022/07/21 13:32:29;;;;;;;;;;;25.30;49.80;;;;;;5025172;28;87909;-37
2022/07/21 13:34:54;;;;;;;;;;;25.30;49.80;;;;;;5024763;28;88544;-37
2022/07/21 13:37:20;;;;;;;;;;;25.30;49.70;;;;;;5024706;28;88028;-37
2022/07/21 13:39:45;;;;;;;;;;;25.40;49.60;;;;;;5025297;28;87349;-37
2022/07/21 13:42:11;;;;;;;;;;;25.30;49.50;;;;;;5025016;28;87276;-37
2022/07/21 13:44:37;;;;;;;;;;;25.40;49.50;;;;;;5025227;28;87096;-37
2022/07/21 13:47:02;;;;;;;;;;;25.40;49.50;;;;;;5024504;28;88894;-37
2022/07/21 13:49:28;;;;;;;;;;;25.40;49.10;;;;;;5027691;28;87371;-37
2022/07/21 13:51:54;;;;;;;;;;;25.50;49.20;;;;;;5025268;28;86998;-37
2022/07/21 13:54:20;;;;;;;;;;;25.50;49.20;;;;;;5025162;28;89174;-37
2022/07/21 13:56:45;;;;;;;;;;;25.50;49.00;;;;;;5025280;28;87390;-37
2022/07/21 13:59:11;;;;;;;;;;;25.60;49.20;;;;;;5024842;28;86970;-37
2022/07/21 14:01:36;;;;;;;;;;;25.60;49.30;;;;;;5023875;28;89820;-37
2022/07/21 14:04:02;;;;;;;;;;;25.60;49.20;;;;;;5024729;28;87106;-37
2022/07/21 14:06:28;;;;;;;;;;;25.60;49.00;;;;;;5025113;28;87613;-37
2022/07/21 14:08:53;;;;;;;;;;;25.70;49.00;;;;;;5024544;28;88120;-37
2022/07/21 14:11:22;;;;;;;;;;;25.70;49.10;;;;;;5027855;28;87004;-37
2022/07/21 14:13:48;;;;;;;;;;;25.70;49.00;;;;;;5024233;28;89657;-37
2022/07/21 14:16:13;;;;;;;;;;;25.80;49.30;;;;;;5022911;28;87177;-37